KDMA

Davis Monthan AFB Airport

Tucson, Arizona, USA
TAF KDMA 221401Z 2214/2320 VRB06KT 9999 SKC 510009 QNH2994INS TX13/2222Z TN01/2313Z
Issued Valid From Valid To
Jan-22 @ 14:01 UTC
(3 hours ago)
Jan-22 @ 14:00 UTC
(3 hours ago)
Jan-23 @ 20:00 UTC
(-1 days ago)
Jan-22 @ 14:00 to Jan-23 @ 20:00
TAF KDMA 221401Z 2214/2320 VRB06KT 9999 SKC 510009 QNH2994INS TX13/2222Z TN01/2313Z
Wind Visibility Clouds Readings Turbulence
Variable at 6 knots Greater than 6 miles
  • Clear skies
Altimeter 29.94" Hg
Pressure 1013.92 hPa
Light turbulence expected at the surface extending to 9,000' AGL
TAF KDMA 221401Z 2214/2320 VRB06KT 9999 SKC 510009 QNH2994INS TX13/2222Z TN01/2313Z
Issued Jan-22 @ 14:01 UTC
(3 hours ago)
Valid From Jan-22 @ 14:00 UTC
(3 hours ago)
Valid To Jan-23 @ 20:00 UTC
(-1 days ago)
Jan-22 @ 14:00 - Jan-23 @ 20:00
Wind Visibility
Variable at 6 knots Greater than 6 miles
Clouds
  • Clear skies